createdAt,value
2022-11-30T00:00:22.479Z,101706.41
2022-11-30T00:05:44.420Z,101719.00
2022-11-30T00:11:11.325Z,101711.47
2022-11-30T00:16:33.164Z,101709.81
2022-11-30T00:21:54.997Z,101715.69
2022-11-30T00:27:16.828Z,101712.81
2022-11-30T00:32:38.599Z,101715.03
2022-11-30T00:38:02.246Z,101713.31
2022-11-30T00:43:24.078Z,101717.19
2022-11-30T00:48:45.946Z,101716.44
2022-11-30T00:54:07.732Z,101721.97
2022-11-30T00:59:29.504Z,101708.75
2022-11-30T01:04:51.312Z,101721.53
2022-11-30T01:10:13.117Z,101709.56
2022-11-30T01:15:40.697Z,101729.75
2022-11-30T01:21:06.051Z,101730.06
2022-11-30T01:26:27.827Z,101714.56
2022-11-30T01:31:49.594Z,101721.44
2022-11-30T01:37:11.399Z,101717.50
2022-11-30T01:42:33.474Z,101735.22
2022-11-30T01:47:57.289Z,101730.75
2022-11-30T01:53:19.317Z,101715.81
2022-11-30T01:58:41.121Z,101748.28
2022-11-30T02:04:09.838Z,101737.56
2022-11-30T02:09:39.760Z,101724.97
2022-11-30T02:15:09.425Z,101740.34
2022-11-30T02:20:47.726Z,101740.00
2022-11-30T02:26:24.786Z,101729.91
2022-11-30T02:32:14.228Z,101722.63
2022-11-30T02:37:38.526Z,101760.72
2022-11-30T02:43:03.346Z,101741.44
2022-11-30T02:54:04.583Z,101752.94
2022-11-30T02:59:26.758Z,101745.63
2022-11-30T03:04:48.819Z,101750.94
2022-11-30T03:10:11.009Z,101767.13
2022-11-30T03:15:32.907Z,101764.25
2022-11-30T03:20:54.771Z,101770.06
2022-11-30T03:26:16.546Z,101749.38
2022-11-30T03:31:38.339Z,101772.97
2022-11-30T03:37:00.146Z,101768.94
2022-11-30T03:42:21.901Z,101768.81
2022-11-30T03:47:43.695Z,101783.56
2022-11-30T03:53:05.488Z,101792.44
2022-11-30T03:58:28.429Z,101770.31
2022-11-30T04:03:51.649Z,101777.34
2022-11-30T04:09:13.580Z,101786.78
2022-11-30T04:14:35.428Z,101794.19
2022-11-30T04:19:57.234Z,101791.16
2022-11-30T04:25:19.056Z,101793.31
2022-11-30T04:30:41.307Z,101787.75
2022-11-30T04:36:05.787Z,101777.38
2022-11-30T04:41:27.582Z,101791.09
2022-11-30T04:46:49.398Z,101787.59
2022-11-30T04:52:11.232Z,101782.16
2022-11-30T04:57:33.034Z,101803.59
2022-11-30T05:02:56.389Z,101812.44
2022-11-30T05:08:18.173Z,101818.00
2022-11-30T05:13:39.954Z,101817.66
2022-11-30T05:19:01.810Z,101815.34
2022-11-30T05:24:23.571Z,101818.66
2022-11-30T05:29:45.508Z,101823.22
2022-11-30T05:35:07.634Z,101814.00
2022-11-30T05:40:29.462Z,101832.56
2022-11-30T05:45:51.230Z,101836.19
2022-11-30T05:51:16.078Z,101847.19
2022-11-30T05:56:37.924Z,101831.25
2022-11-30T06:01:59.829Z,101843.19
2022-11-30T06:07:21.705Z,101843.53
2022-11-30T06:12:43.542Z,101854.28
2022-11-30T06:18:06.394Z,101851.44
2022-11-30T06:23:28.571Z,101851.25
2022-11-30T06:28:50.433Z,101855.66
2022-11-30T06:34:12.206Z,101834.13
2022-11-30T06:40:04.210Z,101856.78
2022-11-30T06:45:15.828Z,101864.72
2022-11-30T06:50:37.686Z,101868.81
2022-11-30T06:55:59.494Z,101869.63
2022-11-30T07:01:21.277Z,101869.94
2022-11-30T07:06:43.138Z,101884.28
2022-11-30T07:12:05.352Z,101881.03
2022-11-30T07:17:27.217Z,101883.78
2022-11-30T07:22:48.988Z,101886.44
2022-11-30T07:28:10.781Z,101876.50
2022-11-30T07:33:32.569Z,101884.28
2022-11-30T07:38:54.492Z,101877.06
2022-11-30T07:44:16.317Z,101889.16
2022-11-30T07:49:38.109Z,101898.50
2022-11-30T07:54:59.925Z,101885.16
2022-11-30T08:00:21.704Z,101894.63
2022-11-30T08:05:43.490Z,101888.00
2022-11-30T08:11:07.104Z,101875.63
2022-11-30T08:16:30.356Z,101893.25
2022-11-30T08:21:52.222Z,101885.19
2022-11-30T08:27:14.006Z,101900.16
2022-11-30T08:32:35.926Z,101904.44
2022-11-30T08:37:57.766Z,101895.94
2022-11-30T08:43:19.610Z,101889.16
2022-11-30T08:48:41.444Z,101892.34
2022-11-30T08:54:03.486Z,101897.22
2022-11-30T08:59:25.399Z,101900.34
2022-11-30T09:04:48.353Z,101896.41
2022-11-30T09:10:10.938Z,101897.31
2022-11-30T09:15:32.849Z,101894.63
2022-11-30T09:21:01.475Z,101890.88
2022-11-30T09:26:23.611Z,101901.91
2022-11-30T09:31:45.520Z,101918.31
2022-11-30T09:37:07.363Z,101898.25
2022-11-30T09:42:32.036Z,101901.41
2022-11-30T09:48:02.582Z,101905.22
2022-11-30T09:53:57.915Z,101904.91
2022-11-30T09:59:22.669Z,101895.75
2022-11-30T10:04:45.553Z,101906.13
2022-11-30T10:10:37.198Z,101897.09
2022-11-30T10:16:18.015Z,101891.78
2022-11-30T10:21:58.827Z,101891.31
2022-11-30T10:27:53.483Z,101886.53
2022-11-30T10:33:23.644Z,101884.94
2022-11-30T10:38:50.371Z,101882.50
2022-11-30T10:44:17.570Z,101890.31
2022-11-30T10:49:45.419Z,101872.28
2022-11-30T10:55:15.364Z,101888.59
2022-11-30T11:00:37.186Z,101894.94
2022-11-30T11:06:06.880Z,101885.16
2022-11-30T11:11:32.669Z,101879.50
2022-11-30T11:17:25.758Z,101867.44
2022-11-30T11:22:47.783Z,101879.88
2022-11-30T11:28:16.048Z,101875.03
2022-11-30T11:33:50.910Z,101883.28
2022-11-30T11:39:25.994Z,101876.16
2022-11-30T11:44:53.372Z,101860.50
2022-11-30T11:50:57.718Z,101856.56
2022-11-30T11:56:14.122Z,101878.63
2022-11-30T12:02:13.230Z,101871.84
2022-11-30T12:07:58.162Z,101864.69
2022-11-30T12:13:22.810Z,101879.91
2022-11-30T12:18:56.818Z,101879.00
2022-11-30T12:24:34.939Z,101872.81
2022-11-30T12:29:56.672Z,101871.63
2022-11-30T12:35:41.538Z,101881.09
2022-11-30T12:41:19.215Z,101889.75
2022-11-30T12:47:24.435Z,101891.19
2022-11-30T12:53:12.424Z,101890.88
2022-11-30T12:59:01.173Z,101899.78
2022-11-30T13:04:45.261Z,101895.75
2022-11-30T13:10:22.649Z,101887.47
2022-11-30T13:15:45.962Z,101880.88
2022-11-30T13:21:33.255Z,101885.91
2022-11-30T13:27:00.433Z,101882.69
2022-11-30T13:32:56.205Z,101878.03
2022-11-30T13:38:35.885Z,101881.00
2022-11-30T13:43:55.836Z,101897.28
2022-11-30T13:49:20.266Z,101889.41
2022-11-30T13:54:43.819Z,101876.41
2022-11-30T14:00:45.708Z,101891.91
2022-11-30T14:06:55.628Z,101891.88
2022-11-30T14:12:32.711Z,101890.75
2022-11-30T14:17:57.368Z,101886.78
2022-11-30T14:23:22.247Z,101887.53
2022-11-30T14:29:02.567Z,101894.09
2022-11-30T14:34:36.473Z,101903.72
2022-11-30T14:40:03.949Z,101888.97
2022-11-30T14:45:27.053Z,101894.69
2022-11-30T14:50:55.652Z,101890.72
2022-11-30T14:56:43.960Z,101904.69
2022-11-30T15:02:17.882Z,101905.00
2022-11-30T15:07:42.131Z,101910.00
2022-11-30T15:13:05.066Z,101905.19
2022-11-30T15:18:26.855Z,101906.97
2022-11-30T15:23:51.493Z,101905.06
2022-11-30T15:29:20.404Z,101884.00
2022-11-30T15:34:53.509Z,101911.91
2022-11-30T15:40:33.493Z,101919.09
2022-11-30T15:45:58.313Z,101923.66
2022-11-30T15:51:26.641Z,101916.91
2022-11-30T15:56:57.335Z,101905.69
2022-11-30T16:02:36.365Z,101921.34
2022-11-30T16:07:59.416Z,101900.66
2022-11-30T16:13:22.635Z,101918.78
2022-11-30T16:18:44.405Z,101915.09
2022-11-30T16:24:06.524Z,101913.47
2022-11-30T16:29:28.322Z,101921.88
2022-11-30T16:34:50.142Z,101903.97
2022-11-30T16:40:12.766Z,101918.69
2022-11-30T16:45:36.821Z,101908.44
2022-11-30T16:50:58.778Z,101924.56
2022-11-30T16:56:20.714Z,101942.75
2022-11-30T17:01:46.936Z,101944.47
2022-11-30T17:07:09.277Z,101939.25
2022-11-30T17:12:31.193Z,101943.91
2022-11-30T17:17:53.006Z,101945.16
2022-11-30T17:23:14.922Z,101951.59
2022-11-30T17:28:36.731Z,101951.69
2022-11-30T17:33:58.617Z,101943.97
2022-11-30T17:39:20.447Z,101950.19
2022-11-30T17:44:42.470Z,101957.63
2022-11-30T17:50:05.358Z,101948.09
2022-11-30T17:55:27.158Z,101959.72
2022-11-30T18:00:50.739Z,101958.72
2022-11-30T18:06:13.434Z,101963.94
2022-11-30T18:11:35.308Z,101946.38
2022-11-30T18:16:57.150Z,101947.06
2022-11-30T18:22:19.484Z,101965.53
2022-11-30T18:27:41.522Z,101966.28
2022-11-30T18:33:03.360Z,101961.91
2022-11-30T18:38:25.790Z,101960.47
2022-11-30T18:43:47.648Z,101949.81
2022-11-30T18:49:09.623Z,101963.97
2022-11-30T18:54:31.428Z,101967.28
2022-11-30T18:59:54.057Z,101971.63
2022-11-30T19:05:16.587Z,101970.13
2022-11-30T19:10:39.904Z,101947.06
2022-11-30T19:16:05.728Z,101964.97
2022-11-30T19:21:27.834Z,101967.75
2022-11-30T19:26:49.697Z,101972.53
2022-11-30T19:32:11.556Z,101977.31
2022-11-30T19:37:33.477Z,101983.47
2022-11-30T19:42:55.729Z,101967.09
2022-11-30T19:48:17.510Z,101982.31
2022-11-30T19:53:41.817Z,101979.72
2022-11-30T19:59:05.689Z,101991.78
2022-11-30T20:04:27.984Z,101994.56
2022-11-30T20:09:49.989Z,101986.97
2022-11-30T20:15:12.336Z,101995.25
2022-11-30T20:20:34.379Z,102001.78
2022-11-30T20:26:05.407Z,101997.50
2022-11-30T20:31:28.970Z,101988.91
2022-11-30T20:36:51.444Z,101999.22
2022-11-30T20:42:13.753Z,102004.59
2022-11-30T20:47:35.648Z,102003.22
2022-11-30T20:52:57.427Z,102007.97
2022-11-30T20:58:19.252Z,102013.38
2022-11-30T21:03:41.782Z,102009.72
2022-11-30T21:09:04.339Z,102012.22
2022-11-30T21:14:26.329Z,102006.81
2022-11-30T21:19:48.170Z,102006.00
2022-11-30T21:25:10.012Z,102000.41
2022-11-30T21:30:31.828Z,102006.50
2022-11-30T21:35:53.658Z,101999.50
2022-11-30T21:41:15.503Z,102016.41
2022-11-30T21:46:37.604Z,102003.97
2022-11-30T21:51:59.441Z,101988.53
2022-11-30T21:57:21.700Z,102007.69
2022-11-30T22:02:43.494Z,101996.91
2022-11-30T22:08:05.407Z,102010.31
2022-11-30T22:13:27.837Z,102004.00
2022-11-30T22:18:53.848Z,102010.00
2022-11-30T22:24:15.725Z,102009.09
2022-11-30T22:29:37.612Z,102006.50
2022-11-30T22:34:59.415Z,102007.03
2022-11-30T22:40:21.200Z,101989.91
2022-11-30T22:45:43.003Z,101993.16
2022-11-30T22:51:10.184Z,101995.09
2022-11-30T22:56:36.917Z,101994.31
2022-11-30T23:01:58.814Z,101996.84
2022-11-30T23:07:20.686Z,102004.59
2022-11-30T23:12:59.058Z,101981.72
2022-11-30T23:18:21.822Z,101971.72
2022-11-30T23:23:44.502Z,101968.63
2022-11-30T23:29:10.058Z,101974.75
2022-11-30T23:34:31.864Z,101978.31
2022-11-30T23:39:53.662Z,101970.97
2022-11-30T23:45:15.461Z,101986.41
2022-11-30T23:50:37.250Z,101974.16
2022-11-30T23:56:04.225Z,101988.44
